Time;durP1;ratioP1;P1;durP2;ratioP2;P2;SDS_P1;SDS_P2;PMS_P1;PMS_P2;Temp;Humidity;BMP_temperature;BMP_pressure;BME280_temperature;BME280_humidity;BME280_pressure;Samples;Min_cycle;Max_cycle;Signal;HPM_P1;HPM_P2
2021/06/05 00:00:14;;;;;;;10.73;6.32;;;10.50;99.90;;;;;;5018533;28;20167;-65
2021/06/05 00:02:41;;;;;;;15.35;8.23;;;10.50;99.90;;;;;;5018046;28;20048;-65
2021/06/05 00:05:09;;;;;;;9.50;7.90;;;10.50;99.90;;;;;;5018522;28;20041;-65
2021/06/05 00:07:36;;;;;;;9.00;8.07;;;10.50;99.90;;;;;;5015252;28;20136;-65
2021/06/05 00:10:06;;;;;;;10.55;8.63;;;10.40;99.90;;;;;;5018697;28;21146;-65
2021/06/05 00:12:33;;;;;;;10.77;8.52;;;10.40;99.90;;;;;;5016895;28;20073;-65
2021/06/05 00:15:02;;;;;;;9.25;8.32;;;10.40;99.90;;;;;;5018078;28;20049;-65
2021/06/05 00:17:29;;;;;;;13.82;7.38;;;10.40;99.90;;;;;;5016054;28;20150;-65
2021/06/05 00:19:56;;;;;;;9.68;7.70;;;10.30;99.90;;;;;;5017402;28;20184;-65
2021/06/05 00:22:22;;;;;;;9.10;7.95;;;10.20;99.90;;;;;;5017661;28;20157;-65
2021/06/05 00:24:49;;;;;;;10.07;8.50;;;10.20;99.90;;;;;;5018300;28;20147;-64
2021/06/05 00:27:16;;;;;;;8.57;7.80;;;10.20;99.90;;;;;;5018226;28;20045;-65
2021/06/05 00:29:43;;;;;;;9.73;8.73;;;10.20;99.90;;;;;;5015482;28;20144;-64
2021/06/05 00:32:10;;;;;;;9.23;8.38;;;10.20;99.90;;;;;;5018502;28;20073;-64
2021/06/05 00:34:37;;;;;;;8.68;7.97;;;10.10;99.90;;;;;;5017345;28;20131;-65
2021/06/05 00:37:04;;;;;;;8.45;7.63;;;10.10;99.90;;;;;;5017610;28;20111;-65
2021/06/05 00:39:32;;;;;;;9.10;8.02;;;10.10;99.90;;;;;;5015561;28;20126;-65
2021/06/05 00:41:59;;;;;;;7.70;6.97;;;10.10;99.90;;;;;;5018284;28;20053;-65
2021/06/05 00:44:27;;;;;;;8.93;7.97;;;10.00;99.90;;;;;;5031753;28;20101;-65
2021/06/05 00:46:54;;;;;;;9.68;7.65;;;9.90;99.90;;;;;;5018713;28;20470;-65
2021/06/05 00:49:21;;;;;;;8.52;7.63;;;9.90;99.90;;;;;;5014553;28;20143;-65
2021/06/05 00:51:52;;;;;;;8.63;7.72;;;9.80;99.90;;;;;;5030390;28;20499;-65
2021/06/05 00:54:25;;;;;;;7.65;6.82;;;9.80;99.90;;;;;;5020777;28;20137;-65
2021/06/05 00:56:56;;;;;;;12.88;7.35;;;9.80;99.90;;;;;;5015769;28;20056;-65
2021/06/05 00:59:27;;;;;;;8.10;7.38;;;9.70;99.90;;;;;;5016248;28;20126;-65
2021/06/05 01:01:55;;;;;;;11.27;7.95;;;9.70;99.90;;;;;;5044523;28;20044;-65
2021/06/05 01:04:22;;;;;;;8.23;6.13;;;9.70;99.90;;;;;;5048801;28;20720;-65
2021/06/05 01:07:30;;;;;;;7.28;6.63;;;9.70;99.90;;;;;;5045508;28;20050;-65
2021/06/05 01:10:11;;;;;;;8.57;7.68;;;9.70;99.90;;;;;;4996835;28;20049;-65
2021/06/05 01:12:54;;;;;;;8.25;6.60;;;9.60;99.90;;;;;;5016270;28;20140;-65
2021/06/05 01:15:35;;;;;;;9.32;7.82;;;9.60;99.90;;;;;;5050150;28;20090;-65
2021/06/05 01:18:09;;;;;;;8.98;7.13;;;9.60;99.90;;;;;;5017403;28;20060;-65
2021/06/05 01:21:13;;;;;;;8.10;7.40;;;9.50;99.90;;;;;;5017319;28;20045;-65
2021/06/05 01:24:08;;;;;;;7.65;6.75;;;9.50;99.90;;;;;;5049672;28;20042;-65
2021/06/05 01:26:38;;;;;;;9.10;7.25;;;9.50;99.90;;;;;;5050548;28;20060;-64
2021/06/05 01:29:14;;;;;;;;;;;9.50;99.90;;;;;;5034523;28;20057;-65
2021/06/05 01:31:51;;;;;;;7.60;6.97;;;9.40;99.90;;;;;;5018217;28;19925;-65
2021/06/05 01:34:19;;;;;;;9.75;7.75;;;9.40;99.90;;;;;;5018026;28;20045;-65
2021/06/05 01:36:53;;;;;;;7.68;6.97;;;9.30;99.90;;;;;;5018386;28;20081;-65
2021/06/05 01:39:35;;;;;;;10.00;8.65;;;9.30;99.90;;;;;;5049753;28;20403;-65
2021/06/05 01:42:07;;;;;;;9.65;8.75;;;9.20;99.90;;;;;;5016630;28;20077;-64
2021/06/05 01:44:38;;;;;;;8.18;7.07;;;9.20;99.90;;;;;;5017754;28;20069;-65
2021/06/05 01:47:05;;;;;;;8.57;7.68;;;9.20;99.90;;;;;;5019745;28;20057;-65
2021/06/05 01:49:33;;;;;;;7.82;7.05;;;9.20;99.90;;;;;;5048646;28;20668;-65
2021/06/05 01:52:24;;;;;;;9.18;8.02;;;9.20;99.90;;;;;;5018011;28;20111;-65
2021/06/05 01:55:15;;;;;;;9.50;8.60;;;9.20;99.90;;;;;;5016089;28;20145;-65
2021/06/05 01:57:48;;;;;;;9.13;7.18;;;9.10;99.90;;;;;;5016235;28;20092;-64
2021/06/05 02:00:36;;;;;;;8.93;6.72;;;9.10;99.90;;;;;;5018951;28;20202;-65
2021/06/05 02:03:05;;;;;;;8.00;7.05;;;9.10;99.90;;;;;;5033302;28;20776;-64
2021/06/05 02:05:38;;;;;;;7.65;6.95;;;9.10;99.90;;;;;;5032007;28;20045;-64
2021/06/05 02:08:13;;;;;;;7.80;7.10;;;9.00;99.90;;;;;;5049806;28;20041;-65
2021/06/05 02:10:43;;;;;;;7.93;7.18;;;9.00;99.90;;;;;;5015700;28;20060;-64
2021/06/05 02:13:21;;;;;;;7.50;6.80;;;9.00;99.90;;;;;;5031234;28;20063;-64
2021/06/05 02:16:17;;;;;;;8.30;7.03;;;9.00;99.90;;;;;;5048360;28;20049;-64
2021/06/05 02:18:51;;;;;;;9.98;6.88;;;9.00;99.90;;;;;;5009582;28;20072;-65
2021/06/05 02:21:28;;;;;;;7.35;6.53;;;9.00;99.90;;;;;;5015734;28;20054;-64
2021/06/05 02:24:07;;;;;;;7.13;6.43;;;9.00;99.90;;;;;;5014009;28;20049;-64
2021/06/05 02:26:37;;;;;;;6.75;6.15;;;9.00;99.90;;;;;;5018512;28;20089;-64
2021/06/05 02:29:21;;;;;;;7.25;6.55;;;9.00;99.90;;;;;;5035770;28;20061;-64
2021/06/05 02:31:48;;;;;;;7.88;6.80;;;9.00;99.90;;;;;;5020022;28;20096;-64
2021/06/05 02:34:21;;;;;;;8.88;5.85;;;9.00;99.90;;;;;;5020927;28;20459;-65
2021/06/05 02:36:51;;;;;;;5.57;4.95;;;9.00;99.90;;;;;;5037000;28;20751;-65
2021/06/05 02:39:19;;;;;;;6.95;6.25;;;9.00;99.90;;;;;;5022882;28;20134;-64
2021/06/05 02:41:52;;;;;;;9.40;6.20;;;9.00;99.90;;;;;;5018337;28;20075;-65
2021/06/05 02:44:23;;;;;;;7.35;6.63;;;9.00;99.90;;;;;;5021061;28;20049;-64
2021/06/05 02:46:50;;;;;;;6.13;5.53;;;9.10;99.90;;;;;;5020840;28;20049;-64
2021/06/05 02:49:19;;;;;;;6.05;5.47;;;9.10;99.90;;;;;;5021392;28;20054;-64
2021/06/05 02:52:11;;;;;;;6.30;5.70;;;9.10;99.90;;;;;;5019732;28;20057;-65
2021/06/05 02:54:38;;;;;;;9.13;5.88;;;9.10;99.90;;;;;;5030860;28;20665;-65
2021/06/05 02:57:08;;;;;;;7.18;5.30;;;9.20;99.90;;;;;;5019524;28;20049;-64
2021/06/05 02:59:41;;;;;;;7.97;5.43;;;9.20;99.90;;;;;;5020809;28;20107;-65
2021/06/05 03:02:09;;;;;;;6.65;6.05;;;9.20;99.90;;;;;;5035834;28;20506;-65
2021/06/05 03:04:36;;;;;;;5.88;5.30;;;9.30;99.90;;;;;;5022833;28;20049;-64
2021/06/05 03:07:04;;;;;;;6.85;6.20;;;9.30;99.90;;;;;;5018647;28;20064;-65
2021/06/05 03:09:32;;;;;;;6.03;5.47;;;9.30;99.90;;;;;;5021195;28;20053;-65
2021/06/05 03:12:00;;;;;;;6.75;5.75;;;9.30;99.90;;;;;;5020967;28;20140;-64
2021/06/05 03:14:27;;;;;;;6.20;5.60;;;9.40;99.90;;;;;;5036056;28;20049;-65
2021/06/05 03:16:56;;;;;;;7.82;6.22;;;9.40;99.90;;;;;;5014533;28;20126;-65
2021/06/05 03:19:23;;;;;;;6.47;5.85;;;9.50;99.90;;;;;;5020377;28;20056;-64
2021/06/05 03:21:51;;;;;;;7.15;6.45;;;9.50;99.90;;;;;;5016961;28;20056;-64
2021/06/05 03:24:25;;;;;;;6.63;5.63;;;9.50;99.90;;;;;;5017488;28;20056;-64
2021/06/05 03:26:53;;;;;;;7.13;5.85;;;9.60;99.90;;;;;;5018852;28;20216;-65
2021/06/05 03:29:23;;;;;;;14.32;6.57;;;9.60;99.90;;;;;;5018251;28;20049;-64
2021/06/05 03:31:59;;;;;;;5.75;5.22;;;9.70;99.90;;;;;;5033528;28;20183;-65
2021/06/05 03:34:30;;;;;;;7.32;6.55;;;9.70;99.90;;;;;;5019790;28;20435;-64
2021/06/05 03:36:58;;;;;;;6.43;5.80;;;9.70;99.90;;;;;;5052659;28;20610;-64
2021/06/05 03:39:25;;;;;;;8.38;6.15;;;9.80;99.90;;;;;;5018573;28;20060;-65
2021/06/05 03:41:56;;;;;;;8.43;7.70;;;9.80;99.90;;;;;;5019810;28;20049;-64
2021/06/05 03:44:24;;;;;;;9.90;5.80;;;9.90;99.90;;;;;;5015719;28;20049;-64
2021/06/05 03:46:53;;;;;;;6.40;5.82;;;9.90;99.90;;;;;;5019329;28;20137;-64
2021/06/05 03:49:22;;;;;;;6.28;5.68;;;10.00;99.90;;;;;;5033629;28;20049;-64
2021/06/05 03:51:50;;;;;;;5.72;5.20;;;10.10;99.90;;;;;;5019254;28;20050;-65
2021/06/05 03:54:20;;;;;;;7.13;6.20;;;10.20;99.90;;;;;;5017528;28;20494;-65
2021/06/05 03:56:47;;;;;;;10.77;6.10;;;10.20;99.90;;;;;;5020346;28;20055;-67
2021/06/05 03:59:14;;;;;;;7.50;6.45;;;10.30;99.90;;;;;;5018635;28;20057;-64
2021/06/05 04:01:41;;;;;;;7.88;6.88;;;10.40;99.90;;;;;;5017307;28;20046;-64
2021/06/05 04:04:08;;;;;;;7.75;5.90;;;10.50;99.90;;;;;;5019481;28;20056;-64
2021/06/05 04:06:35;;;;;;;9.60;6.68;;;10.60;99.90;;;;;;5017734;28;20088;-64
2021/06/05 04:09:05;;;;;;;6.50;6.00;;;10.70;99.90;;;;;;5018076;28;20057;-65
2021/06/05 04:11:35;;;;;;;6.70;6.10;;;10.80;99.90;;;;;;5014023;28;20050;-64
2021/06/05 04:14:02;;;;;;;5.80;5.28;;;10.90;99.90;;;;;;5016011;28;20781;-64
2021/06/05 04:16:30;;;;;;;7.95;7.03;;;11.00;99.90;;;;;;5018924;28;20140;-65
2021/06/05 04:18:58;;;;;;;7.25;6.35;;;11.10;99.90;;;;;;5017719;28;20049;-64
2021/06/05 04:21:25;;;;;;;6.85;6.07;;;11.20;99.90;;;;;;5016980;28;20483;-65
2021/06/05 04:23:53;;;;;;;6.68;5.18;;;11.20;99.90;;;;;;5018051;28;20041;-64
2021/06/05 04:26:21;;;;;;;7.38;6.55;;;11.30;99.90;;;;;;5016587;28;20133;-64
2021/06/05 04:28:48;;;;;;;6.30;5.72;;;11.40;99.90;;;;;;5018337;28;20154;-64
2021/06/05 04:31:16;;;;;;;7.57;6.05;;;11.70;99.90;;;;;;5016839;28;20045;-64
2021/06/05 04:33:43;;;;;;;5.38;4.88;;;11.70;99.90;;;;;;5015852;28;20049;-64
2021/06/05 04:36:13;;;;;;;7.00;6.07;;;11.90;99.90;;;;;;5015653;28;20053;-64
2021/06/05 04:38:41;;;;;;;5.78;4.97;;;12.00;99.90;;;;;;5017562;28;20633;-65
2021/06/05 04:41:10;;;;;;;5.20;4.43;;;12.20;99.90;;;;;;5016567;28;20045;-65
2021/06/05 04:43:38;;;;;;;5.85;5.28;;;12.30;99.90;;;;;;5015428;28;20124;-65
2021/06/05 04:46:05;;;;;;;9.20;4.53;;;12.50;99.90;;;;;;5016579;28;20554;-64
2021/06/05 04:48:34;;;;;;;5.18;4.18;;;12.50;99.90;;;;;;5018467;28;20729;-65
2021/06/05 04:51:01;;;;;;;5.45;4.03;;;12.70;99.90;;;;;;5015176;28;20115;-64
2021/06/05 04:53:28;;;;;;;5.65;4.60;;;12.90;99.90;;;;;;5015666;28;20150;-65
2021/06/05 04:55:55;;;;;;;6.65;6.10;;;13.00;99.90;;;;;;5017249;28;20049;-65
2021/06/05 04:58:23;;;;;;;4.93;4.03;;;13.20;99.90;;;;;;5017669;28;20161;-64
2021/06/05 05:00:52;;;;;;;5.53;4.30;;;13.20;99.90;;;;;;5015690;28;20134;-64
2021/06/05 05:03:23;;;;;;;6.28;4.20;;;13.30;99.90;;;;;;5017684;28;20053;-64
2021/06/05 05:05:52;;;;;;;5.55;3.95;;;13.40;99.90;;;;;;5015883;28;20212;-64
2021/06/05 05:08:19;;;;;;;4.75;4.35;;;13.50;99.90;;;;;;5017391;28;20103;-65
2021/06/05 05:10:49;;;;;;;3.85;3.55;;;13.60;99.90;;;;;;5016958;28;20077;-64
2021/06/05 05:13:21;;;;;;;6.88;4.55;;;13.60;99.90;;;;;;5018087;28;20165;-65
2021/06/05 05:15:48;;;;;;;4.97;3.97;;;13.70;99.90;;;;;;5014544;28;20569;-64
2021/06/05 05:18:15;;;;;;;5.43;3.72;;;13.80;99.90;;;;;;5015777;28;20077;-65
2021/06/05 05:20:44;;;;;;;4.90;3.72;;;13.80;99.90;;;;;;5017996;28;20465;-64
2021/06/05 05:23:12;;;;;;;6.05;4.63;;;13.80;99.90;;;;;;5011994;28;20562;-64
2021/06/05 05:25:42;;;;;;;4.47;3.75;;;13.90;99.90;;;;;;5012587;28;20126;-64
2021/06/05 05:28:11;;;;;;;3.95;3.50;;;14.00;99.90;;;;;;5031896;28;20126;-64
2021/06/05 05:30:44;;;;;;;5.82;3.85;;;14.20;99.90;;;;;;5016288;28;20128;-64
2021/06/05 05:33:11;;;;;;;5.95;3.88;;;14.30;99.90;;;;;;5013992;28;20053;-64
2021/06/05 05:35:39;;;;;;;4.25;3.25;;;14.40;99.90;;;;;;5015041;28;20277;-64
2021/06/05 05:38:08;;;;;;;6.22;3.72;;;14.50;99.90;;;;;;5013491;28;20132;-64
2021/06/05 05:40:37;;;;;;;5.60;2.92;;;14.70;99.90;;;;;;5016695;28;20044;-64
2021/06/05 05:43:04;;;;;;;3.85;3.55;;;14.80;99.90;;;;;;5016795;28;20053;-64
2021/06/05 05:45:32;;;;;;;3.72;3.40;;;14.80;99.90;;;;;;5013270;28;20682;-64
2021/06/05 05:48:01;;;;;;;3.90;3.42;;;14.80;99.90;;;;;;5015003;28;20053;-64
2021/06/05 05:50:30;;;;;;;3.63;3.33;;;15.00;99.90;;;;;;5016181;28;20099;-64
2021/06/05 05:52:57;;;;;;;9.10;3.65;;;15.00;99.90;;;;;;5016744;28;20146;-64
2021/06/05 05:55:26;;;;;;;3.53;3.22;;;15.00;99.90;;;;;;5014741;28;20080;-64
2021/06/05 05:57:54;;;;;;;4.72;3.88;;;15.10;99.90;;;;;;5015348;28;20069;-65
2021/06/05 06:00:30;;;;;;;4.45;3.75;;;15.20;99.90;;;;;;5016776;28;20073;-64
2021/06/05 06:02:57;;;;;;;3.70;3.40;;;15.20;99.90;;;;;;5016031;28;20081;-64
2021/06/05 06:05:44;;;;;;;3.65;2.87;;;15.30;99.90;;;;;;4208522;28;10001922;-64
2021/06/05 06:08:14;;;;;;;3.65;3.35;;;15.30;99.90;;;;;;2765388;28;10002778;-64
2021/06/05 06:10:42;;;;;;;3.67;2.90;;;15.30;99.90;;;;;;5015965;28;20139;-64
2021/06/05 06:13:09;;;;;;;3.35;3.15;;;15.40;99.90;;;;;;5017212;28;20483;-64
2021/06/05 06:15:37;;;;;;;5.75;2.97;;;15.40;99.90;;;;;;5014158;28;20045;-64
2021/06/05 06:18:06;;;;;;;4.47;3.10;;;15.50;99.90;;;;;;5016065;28;20045;-64
2021/06/05 06:20:42;;;;;;;2.83;2.50;;;15.60;99.90;;;;;;5016497;28;20231;-64
2021/06/05 06:23:12;;;;;;;2.60;2.40;;;15.80;99.90;;;;;;5013979;28;20144;-64
2021/06/05 06:25:40;;;;;;;3.58;3.28;;;15.80;99.90;;;;;;5015319;28;20282;-64
2021/06/05 06:28:12;;;;;;;3.72;2.58;;;15.90;99.90;;;;;;5014646;28;20133;-65
2021/06/05 06:30:41;;;;;;;3.97;3.25;;;15.90;99.90;;;;;;5017295;28;20123;-64
2021/06/05 06:33:10;;;;;;;3.08;2.88;;;15.90;99.90;;;;;;5009685;28;20045;-64
2021/06/05 06:35:38;;;;;;;3.28;2.35;;;16.00;99.90;;;;;;5014997;28;20081;-64
2021/06/05 06:38:10;;;;;;;2.78;2.58;;;16.10;99.90;;;;;;5013394;28;20054;-65
2021/06/05 06:40:38;;;;;;;8.30;3.13;;;16.20;99.90;;;;;;5015729;28;20106;-64
2021/06/05 06:43:08;;;;;;;2.83;2.60;;;16.20;99.90;;;;;;5013870;28;20126;-64
2021/06/05 06:45:44;;;;;;;2.63;2.38;;;16.50;99.90;;;;;;5012269;28;20038;-64
2021/06/05 06:48:11;;;;;;;2.80;2.60;;;16.50;99.90;;;;;;5015120;28;20055;-64
2021/06/05 06:50:39;;;;;;;2.42;2.17;;;16.60;99.40;;;;;;5014018;28;20665;-65
2021/06/05 06:53:06;;;;;;;5.50;2.10;;;16.80;96.40;;;;;;5013902;28;20133;-64
2021/06/05 06:55:33;;;;;;;3.40;2.50;;;17.00;97.40;;;;;;5014737;28;20152;-64
2021/06/05 06:58:00;;;;;;;3.25;2.75;;;17.20;98.00;;;;;;5014880;28;20080;-64
2021/06/05 07:00:33;;;;;;;2.90;2.70;;;17.20;98.10;;;;;;5015080;28;20056;-64
2021/06/05 07:03:00;;;;;;;2.67;2.25;;;17.20;97.30;;;;;;5015727;28;20053;-64
2021/06/05 07:05:28;;;;;;;2.65;2.30;;;17.20;96.90;;;;;;5013536;28;20042;-64
2021/06/05 07:08:21;;;;;;;3.17;2.25;;;17.20;95.70;;;;;;5014674;28;20126;-64
2021/06/05 07:10:54;;;;;;;2.60;2.40;;;17.30;95.60;;;;;;5015074;28;20140;-64
2021/06/05 07:13:21;;;;;;;3.70;2.85;;;17.50;95.00;;;;;;5016601;28;20736;-64
2021/06/05 07:15:49;;;;;;;3.47;2.00;;;17.60;93.70;;;;;;5017574;28;20145;-64
2021/06/05 07:18:17;;;;;;;2.67;2.38;;;17.70;93.00;;;;;;5017726;28;20057;-64
2021/06/05 07:20:47;;;;;;;10.75;2.92;;;17.80;93.30;;;;;;5019860;28;20819;-64
2021/06/05 07:23:16;;;;;;;4.72;1.95;;;17.70;92.90;;;;;;5018319;28;20057;-64
2021/06/05 07:25:44;;;;;;;4.40;2.05;;;17.80;92.80;;;;;;5016997;28;20052;-64
2021/06/05 07:28:22;;;;;;;2.60;2.17;;;17.80;91.70;;;;;;5018686;28;20115;-64
2021/06/05 07:30:50;;;;;;;2.33;2.13;;;17.90;90.40;;;;;;5016866;28;20065;-64
2021/06/05 07:33:18;;;;;;;2.67;2.25;;;18.00;91.00;;;;;;5019608;28;20045;-64
2021/06/05 07:35:45;;;;;;;2.30;2.10;;;18.10;90.40;;;;;;5018010;28;20251;-64
2021/06/05 07:38:14;;;;;;;2.53;2.33;;;18.20;87.30;;;;;;5013894;28;20049;-65
2021/06/05 07:40:43;;;;;;;2.22;2.05;;;18.30;87.70;;;;;;5016572;28;20134;-64
2021/06/05 07:43:12;;;;;;;2.63;1.98;;;18.40;86.80;;;;;;5019152;28;20187;-64
2021/06/05 07:45:39;;;;;;;4.40;2.03;;;18.50;81.10;;;;;;5016216;28;20088;-64
2021/06/05 07:48:06;;;;;;;1.85;1.70;;;18.70;83.40;;;;;;5018436;28;20143;-64
2021/06/05 07:50:34;;;;;;;4.10;2.50;;;18.80;79.20;;;;;;5018676;28;20544;-64
2021/06/05 07:53:01;;;;;;;3.50;1.52;;;18.90;80.10;;;;;;5017034;28;20042;-64
2021/06/05 07:55:32;;;;;;;2.78;2.55;;;18.80;78.70;;;;;;5013658;28;20052;-64
2021/06/05 07:57:59;;;;;;;2.50;1.60;;;18.90;78.10;;;;;;5019218;28;20734;-64
2021/06/05 08:00:32;;;;;;;3.42;2.58;;;19.00;78.70;;;;;;5017997;28;20128;-64
2021/06/05 08:02:59;;;;;;;2.85;1.90;;;19.00;79.70;;;;;;5016553;28;20132;-64
2021/06/05 08:05:27;;;;;;;1.50;1.40;;;19.10;77.00;;;;;;5017368;28;20443;-64
2021/06/05 08:07:54;;;;;;;3.58;2.30;;;19.30;76.60;;;;;;5017888;28;20049;-64
2021/06/05 08:10:24;;;;;;;2.45;2.25;;;19.30;74.60;;;;;;5019124;28;20081;-64
2021/06/05 08:12:51;;;;;;;6.38;2.78;;;19.30;75.50;;;;;;5018103;28;20080;-64
2021/06/05 08:15:31;;;;;;;4.03;1.88;;;19.30;73.80;;;;;;5018048;28;20057;-64
2021/06/05 08:17:58;;;;;;;;;;;19.40;74.00;;;;;;5016711;28;20171;-64
2021/06/05 08:20:30;;;;;;;2.45;1.85;;;19.50;74.50;;;;;;5018115;28;20007;-64
2021/06/05 08:22:57;;;;;;;5.43;2.10;;;19.60;74.60;;;;;;5016472;28;20054;-64
2021/06/05 08:25:25;;;;;;;2.80;1.73;;;19.80;72.90;;;;;;5018157;28;20073;-64
2021/06/05 08:27:53;;;;;;;4.20;1.80;;;19.70;71.80;;;;;;5015881;28;20045;-64
2021/06/05 08:30:28;;;;;;;1.55;1.45;;;19.70;70.90;;;;;;5018337;28;20049;-64
2021/06/05 08:32:55;;;;;;;5.95;2.40;;;19.70;72.50;;;;;;5017704;28;20085;-65
2021/06/05 08:35:22;;;;;;;6.07;2.08;;;19.90;71.50;;;;;;5017004;28;20732;-65
2021/06/05 08:37:49;;;;;;;2.53;2.33;;;19.80;71.20;;;;;;5015951;28;20139;-64
2021/06/05 08:40:32;;;;;;;1.58;1.35;;;19.80;71.70;;;;;;5018924;28;20053;-64
2021/06/05 08:42:59;;;;;;;1.80;1.70;;;19.80;70.00;;;;;;5012735;28;20102;-64
2021/06/05 08:45:31;;;;;;;3.03;1.63;;;19.90;70.50;;;;;;5016440;28;20407;-64
2021/06/05 08:48:03;;;;;;;2.47;2.20;;;20.00;72.10;;;;;;5016393;28;21568;-64
2021/06/05 08:50:31;;;;;;;2.30;1.65;;;20.00;72.60;;;;;;5017755;28;20065;-64
2021/06/05 08:53:22;;;;;;;2.22;1.83;;;20.20;71.70;;;;;;5016774;28;20049;-65
2021/06/05 08:55:55;;;;;;;2.10;1.90;;;20.30;71.10;;;;;;5015130;28;20132;-64
2021/06/05 08:58:31;;;;;;;2.17;1.60;;;20.40;69.40;;;;;;5015140;28;20057;-64
2021/06/05 09:01:04;;;;;;;5.30;2.53;;;20.40;69.60;;;;;;5018425;28;20073;-64
2021/06/05 09:03:34;;;;;;;2.05;1.95;;;20.30;69.80;;;;;;5014645;28;20052;-64
2021/06/05 09:06:54;;;;;;;4.05;2.05;;;20.00;69.40;;;;;;5017245;28;20045;-64
2021/06/05 09:09:28;;;;;;;4.40;2.17;;;20.00;69.60;;;;;;5025112;28;20068;-64
2021/06/05 09:11:55;;;;;;;2.10;1.65;;;20.00;70.30;;;;;;5015941;28;20141;-64
2021/06/05 09:14:22;;;;;;;2.40;2.20;;;19.90;71.60;;;;;;5017563;28;20073;-64
2021/06/05 09:16:51;;;;;;;3.15;1.88;;;20.00;69.90;;;;;;5017242;28;20158;-64
2021/06/05 09:19:27;;;;;;;3.45;1.90;;;20.00;71.10;;;;;;5016776;28;20111;-64
2021/06/05 09:22:06;;;;;;;2.05;1.95;;;20.00;70.70;;;;;;5014586;28;20056;-64
2021/06/05 09:24:38;;;;;;;3.47;1.88;;;19.90;71.50;;;;;;5016726;28;20046;-64
2021/06/05 09:27:10;;;;;;;2.58;2.35;;;19.90;71.30;;;;;;5017002;28;20496;-64
2021/06/05 09:29:58;;;;;;;2.40;2.20;;;19.90;72.80;;;;;;5015352;28;20069;-65
2021/06/05 09:32:29;;;;;;;1.88;1.77;;;19.80;73.30;;;;;;5015239;28;20095;-64
2021/06/05 09:35:05;;;;;;;1.90;1.80;;;19.70;73.90;;;;;;5019089;28;20103;-65
2021/06/05 09:37:38;;;;;;;2.17;1.90;;;19.70;77.00;;;;;;5010314;28;20132;-64
2021/06/05 09:40:27;;;;;;;3.50;3.15;;;19.70;78.30;;;;;;5017251;28;20081;-64
2021/06/05 09:43:17;;;;;;;3.67;3.38;;;19.60;81.90;;;;;;5017140;28;20129;-64
2021/06/05 09:45:47;;;;;;;4.40;4.10;;;19.50;90.60;;;;;;5011141;28;20076;-64
2021/06/05 09:48:31;;;;;;;3.10;2.78;;;19.50;91.40;;;;;;5012674;28;20602;-64
2021/06/05 09:51:05;;;;;;;3.35;3.05;;;19.40;89.20;;;;;;5016547;28;21349;-64
2021/06/05 09:53:38;;;;;;;3.50;2.67;;;19.50;91.00;;;;;;5014255;28;20075;-64
2021/06/05 09:56:11;;;;;;;2.83;2.63;;;19.50;90.90;;;;;;5016392;28;20063;-64
2021/06/05 09:58:42;;;;;;;11.15;3.45;;;19.50;91.40;;;;;;5016417;28;20181;-64
2021/06/05 10:01:29;;;;;;;3.17;2.88;;;19.40;90.10;;;;;;5013548;28;20215;-64
2021/06/05 10:04:03;;;;;;;3.03;2.67;;;19.30;90.50;;;;;;5014603;28;20055;-64
2021/06/05 10:06:41;;;;;;;3.17;2.88;;;19.00;90.10;;;;;;5015631;28;20112;-64
2021/06/05 10:09:27;;;;;;;4.57;2.40;;;19.00;89.80;;;;;;5015796;28;20077;-65
2021/06/05 10:11:58;;;;;;;2.55;2.35;;;18.80;90.30;;;;;;5013860;28;20148;-64
2021/06/05 10:15:07;;;;;;;9.85;4.05;;;18.70;90.50;;;;;;5017013;28;20160;-64
2021/06/05 10:17:56;;;;;;;3.55;2.85;;;18.80;92.30;;;;;;5012783;28;20053;-65
2021/06/05 10:20:57;;;;;;;5.35;3.63;;;19.20;92.30;;;;;;5015979;28;20049;-65
2021/06/05 10:23:51;;;;;;;4.10;2.42;;;19.50;91.00;;;;;;5016445;28;20406;-64
2021/06/05 10:26:34;;;;;;;2.80;2.60;;;19.50;90.00;;;;;;5014515;28;20190;-64
2021/06/05 10:29:31;;;;;;;3.60;3.25;;;19.60;90.40;;;;;;5015537;28;20356;-64
2021/06/05 10:32:04;;;;;;;3.83;3.10;;;19.70;90.70;;;;;;5013709;28;20049;-65
2021/06/05 10:34:42;;;;;;;3.30;3.00;;;19.60;90.30;;;;;;5017286;28;20179;-65
2021/06/05 10:37:15;;;;;;;4.00;2.97;;;19.60;90.50;;;;;;5016071;28;20503;-64
2021/06/05 10:39:44;;;;;;;5.30;3.40;;;19.30;90.40;;;;;;5014433;28;20139;-65
2021/06/05 10:42:32;;;;;;;4.00;2.85;;;19.50;90.20;;;;;;5016030;28;20152;-64
2021/06/05 10:44:59;;;;;;;7.07;3.28;;;19.60;89.40;;;;;;5016109;28;20053;-65
2021/06/05 10:47:27;;;;;;;3.47;2.25;;;19.70;87.90;;;;;;5016776;28;20076;-66
2021/06/05 10:49:54;;;;;;;2.85;2.45;;;19.70;87.00;;;;;;5015678;28;20108;-65
2021/06/05 10:52:35;;;;;;;3.70;2.30;;;19.70;90.00;;;;;;5018965;28;20142;-65
2021/06/05 10:55:10;;;;;;;2.17;1.98;;;19.60;87.80;;;;;;5018869;28;20100;-65
2021/06/05 10:57:49;;;;;;;4.38;2.78;;;19.60;86.10;;;;;;5016983;28;20813;-65
2021/06/05 11:00:27;;;;;;;3.07;2.83;;;19.50;86.50;;;;;;5020305;28;20964;-64
2021/06/05 11:02:56;;;;;;;2.45;2.22;;;19.60;86.60;;;;;;5019109;28;20144;-64
2021/06/05 11:05:31;;;;;;;2.90;2.22;;;19.70;83.70;;;;;;5019141;28;20123;-64
2021/06/05 11:08:24;;;;;;;2.90;2.58;;;19.70;82.30;;;;;;5016838;28;20049;-64
2021/06/05 11:10:53;;;;;;;2.28;1.75;;;20.10;81.00;;;;;;5018231;28;20061;-65
2021/06/05 11:13:36;;;;;;;3.95;2.33;;;19.90;79.00;;;;;;5018229;28;20049;-64
2021/06/05 11:16:13;;;;;;;3.40;1.90;;;20.00;81.30;;;;;;5019001;28;20037;-65
2021/06/05 11:19:03;;;;;;;4.45;2.58;;;20.20;81.90;;;;;;5019221;28;20075;-64
2021/06/05 11:21:30;;;;;;;2.00;1.90;;;20.20;79.70;;;;;;5027811;28;20463;-64
2021/06/05 11:23:57;;;;;;;2.60;1.92;;;20.00;80.80;;;;;;5019028;28;21231;-64
2021/06/05 11:26:39;;;;;;;2.63;2.42;;;20.00;82.20;;;;;;5017150;28;20057;-64
2021/06/05 11:29:15;;;;;;;3.47;2.40;;;20.10;83.30;;;;;;5018204;28;20507;-64
2021/06/05 11:31:53;;;;;;;2.67;2.45;;;20.20;83.20;;;;;;5017202;28;20103;-64
2021/06/05 11:34:29;;;;;;;2.83;2.63;;;20.20;83.00;;;;;;5019065;28;20491;-64
2021/06/05 11:37:14;;;;;;;3.45;1.90;;;20.20;84.20;;;;;;5017545;28;20148;-65
2021/06/05 11:39:51;;;;;;;3.05;2.75;;;20.20;84.90;;;;;;5017944;28;20140;-65
2021/06/05 11:42:21;;;;;;;2.47;2.00;;;20.20;82.90;;;;;;5018517;28;20139;-64
2021/06/05 11:45:23;;;;;;;2.47;2.17;;;20.10;82.30;;;;;;5017233;28;20057;-64
2021/06/05 11:47:50;;;;;;;6.65;3.75;;;20.00;84.70;;;;;;5018574;28;20084;-64
2021/06/05 11:50:25;;;;;;;2.53;2.35;;;20.40;83.00;;;;;;5018784;28;20073;-64
2021/06/05 11:53:15;;;;;;;2.42;2.17;;;20.60;82.00;;;;;;5017489;28;20894;-64
2021/06/05 11:55:48;;;;;;;5.38;2.42;;;20.80;78.80;;;;;;5012175;28;20073;-64
2021/06/05 11:58:20;;;;;;;5.97;2.40;;;20.80;78.60;;;;;;5017702;28;20207;-64
2021/06/05 12:00:59;;;;;;;5.32;2.63;;;20.50;80.80;;;;;;5047190;28;20041;-64
2021/06/05 12:03:38;;;;;;;2.05;1.95;;;20.40;78.90;;;;;;5018112;28;20064;-66
2021/06/05 12:06:29;;;;;;;3.20;2.30;;;20.00;83.00;;;;;;5006078;28;20523;-64
2021/06/05 12:09:08;;;;;;;;;;;20.30;84.70;;;;;;5012044;28;20156;-64
2021/06/05 12:11:50;;;;;;;3.13;2.40;;;20.30;83.30;;;;;;5012712;28;20022;-64
2021/06/05 12:14:39;;;;;;;3.13;2.45;;;20.60;84.70;;;;;;5015565;28;20049;-64
2021/06/05 12:17:29;;;;;;;4.10;2.45;;;20.70;82.50;;;;;;5014737;28;20128;-64
2021/06/05 12:20:24;;;;;;;2.65;2.17;;;20.30;83.70;;;;;;5014665;28;20049;-64
2021/06/05 12:22:55;;;;;;;2.67;2.47;;;19.90;83.90;;;;;;5015847;28;20062;-64
2021/06/05 12:25:28;;;;;;;2.38;2.17;;;19.90;85.00;;;;;;5016240;28;20053;-64
2021/06/05 12:28:10;;;;;;;2.30;2.10;;;19.70;84.60;;;;;;5014737;28;20084;-64
2021/06/05 12:30:41;;;;;;;2.10;1.90;;;19.80;86.20;;;;;;5019282;28;20157;-64
2021/06/05 12:33:10;;;;;;;2.45;2.25;;;20.00;86.60;;;;;;5015885;28;20041;-64
2021/06/05 12:35:44;;;;;;;4.25;2.15;;;20.20;87.50;;;;;;5017155;28;20168;-64
2021/06/05 12:38:28;;;;;;;2.72;1.98;;;20.30;82.10;;;;;;5016660;28;20064;-64
2021/06/05 12:40:58;;;;;;;2.35;2.15;;;20.40;85.10;;;;;;5016900;28;20056;-64
2021/06/05 12:43:31;;;;;;;3.50;2.38;;;20.70;83.30;;;;;;5018306;28;20053;-64
2021/06/05 12:46:00;;;;;;;1.92;1.83;;;20.70;85.10;;;;;;5016838;28;20057;-64
2021/06/05 12:48:28;;;;;;;6.25;2.60;;;20.60;83.30;;;;;;5011706;28;20148;-64
2021/06/05 12:50:57;;;;;;;2.58;2.38;;;20.80;83.90;;;;;;5017387;28;20139;-64
2021/06/05 12:53:29;;;;;;;3.97;2.37;;;20.90;84.30;;;;;;5017583;28;20177;-64
2021/06/05 12:56:03;;;;;;;3.30;2.80;;;20.30;82.70;;;;;;5015702;28;20136;-64
2021/06/05 12:58:39;;;;;;;3.28;2.05;;;19.90;82.60;;;;;;5016437;28;20045;-65
2021/06/05 13:01:35;;;;;;;2.83;2.63;;;20.00;85.20;;;;;;5018536;28;20993;-64
2021/06/05 13:04:06;;;;;;;3.17;2.97;;;20.40;84.10;;;;;;5014773;28;20056;-65
2021/06/05 13:07:07;;;;;;;2.20;2.00;;;20.70;82.80;;;;;;5018293;28;20093;-64
2021/06/05 13:09:38;;;;;;;3.25;2.95;;;20.50;81.80;;;;;;5000781;28;20103;-65
2021/06/05 13:12:29;;;;;;;2.95;2.33;;;20.40;82.80;;;;;;5013514;28;20112;-65
2021/06/05 13:15:12;;;;;;;2.47;2.28;;;20.80;84.10;;;;;;5012159;28;20167;-64
2021/06/05 13:17:54;;;;;;;2.30;2.10;;;20.90;84.10;;;;;;5013434;28;20077;-64
2021/06/05 13:20:28;;;;;;;2.55;2.38;;;20.70;83.40;;;;;;5014598;28;20057;-65